Wetterdaten: Woche 18.04.16 - 24.04.16 (KW16)
Datum Zeit Temp. I. Temp. A. Boden 5 cm Feuchte A. Sonne Luftdruck Regen Wind Sonnenschein
18.04.2016 00:00 21,9 C 7,8 C 9,5 C 93 % 0 % 1018 hPa 0,7 l/m 3,7 km/h (1 Bft) 0,00 h
18.04.2016 01:00 21,9 C 7,4 C 9,2 C 94 % 0 % 1018 hPa 1,0 l/m 1,4 km/h (1 Bft) 0,00 h
18.04.2016 02:00 21,9 C 7,2 C 8,9 C 94 % 0 % 1018 hPa 0,7 l/m 1,9 km/h (1 Bft) 0,00 h
18.04.2016 03:00 21,9 C 7,1 C 9,0 C 95 % 0 % 1018 hPa 0,7 l/m 0,3 km/h (0 Bft) 0,00 h
18.04.2016 04:00 21,9 C 7,0 C 8,8 C 95 % 0 % 1018 hPa 0,3 l/m 0,5 km/h (0 Bft) 0,00 h
18.04.2016 05:00 21,9 C 6,8 C 8,7 C 95 % 0 % 1018 hPa 0,0 l/m 0,1 km/h (0 Bft) 0,00 h
18.04.2016 06:00 21,9 C 6,7 C 8,7 C 95 % 1 % 1018 hPa 0,0 l/m 0,0 km/h (0 Bft) 0,00 h
18.04.2016 07:00 21,9 C 6,6 C 8,5 C 95 % 6 % 1019 hPa 0,3 l/m 0,6 km/h (0 Bft) 0,00 h
18.04.2016 08:00 21,7 C 6,9 C 8,7 C 94 % 16 % 1020 hPa 0,0 l/m 0,5 km/h (0 Bft) 0,00 h
18.04.2016 09:00 21,8 C 7,5 C 9,0 C 92 % 26 % 1020 hPa 0,0 l/m 0,4 km/h (0 Bft) 0,00 h
18.04.2016 10:00 21,7 C 7,9 C 8,9 C 90 % 22 % 1020 hPa 0,0 l/m 0,4 km/h (0 Bft) 0,00 h
18.04.2016 11:00 21,8 C 8,3 C 9,2 C 88 % 38 % 1020 hPa 0,0 l/m 1,6 km/h (1 Bft) 0,00 h
18.04.2016 12:00 21,9 C 9,7 C 10,0 C 83 % 62 % 1020 hPa 0,0 l/m 3,6 km/h (1 Bft) 0,75 h
18.04.2016 13:00 22,0 C 10,2 C 10,2 C 77 % 43 % 1020 hPa 0,0 l/m 1,1 km/h (1 Bft) 0,35 h
18.04.2016 14:00 22,0 C 10,5 C 11,5 C 75 % 48 % 1020 hPa 0,0 l/m 2,7 km/h (1 Bft) 0,30 h
18.04.2016 15:00 22,0 C 11,4 C 12,6 C 74 % 49 % 1020 hPa 0,0 l/m 4,6 km/h (1 Bft) 0,35 h
18.04.2016 16:00 22,1 C 10,7 C 12,3 C 78 % 31 % 1020 hPa 0,0 l/m 5,9 km/h (2 Bft) 0,10 h
18.04.2016 17:00 22,0 C 10,4 C 11,9 C 78 % 20 % 1020 hPa 0,0 l/m 3,9 km/h (1 Bft) 0,00 h
18.04.2016 18:00 21,9 C 10,4 C 11,8 C 78 % 15 % 1020 hPa 0,0 l/m 3,3 km/h (1 Bft) 0,00 h
18.04.2016 19:00 22,2 C 10,2 C 11,5 C 81 % 7 % 1020 hPa 0,0 l/m 0,0 km/h (0 Bft) 0,30 h
18.04.2016 20:00 22,4 C 9,6 C 11,2 C 84 % 0 % 1021 hPa 0,0 l/m 0,0 km/h (0 Bft) 0,00 h
18.04.2016 21:00 22,4 C 9,2 C 10,9 C 86 % 0 % 1022 hPa 0,0 l/m 0,1 km/h (0 Bft) 0,00 h
18.04.2016 22:00 22,1 C 9,1 C 10,7 C 88 % 0 % 1022 hPa 0,0 l/m 0,7 km/h (0 Bft) 0,00 h
18.04.2016 23:00 22,0 C 8,7 C 10,4 C 91 % 0 % 1023 hPa 0,3 l/m 0,6 km/h (0 Bft) 0,00 h
19.04.2016 00:00 22,0 C 8,1 C 10,1 C 92 % 0 % 1023 hPa 0,0 l/m 0,0 km/h (0 Bft) 0,00 h
19.04.2016 01:00 22,0 C 7,6 C 9,7 C 93 % 0 % 1023 hPa 0,0 l/m 0,0 km/h (0 Bft) 0,00 h
19.04.2016 02:00 21,9 C 7,3 C 9,4 C 94 % 0 % 1023 hPa 0,0 l/m 0,0 km/h (0 Bft) 0,00 h
19.04.2016 03:00 21,9 C 6,9 C 9,2 C 94 % 0 % 1023 hPa 0,0 l/m 0,1 km/h (0 Bft) 0,00 h
19.04.2016 04:00 21,9 C 6,1 C 8,6 C 95 % 0 % 1024 hPa 0,0 l/m 0,3 km/h (0 Bft) 0,00 h
19.04.2016 05:00 21,9 C 4,4 C 7,6 C 96 % 0 % 1024 hPa 0,0 l/m 0,0 km/h (0 Bft) 0,00 h
19.04.2016 06:00 21,9 C 4,5 C 7,3 C 96 % 4 % 1025 hPa 0,0 l/m 0,1 km/h (0 Bft) 0,00 h
19.04.2016 07:00 21,8 C 5,4 C 7,5 C 96 % 21 % 1025 hPa 0,0 l/m 0,1 km/h (0 Bft) 0,00 h
19.04.2016 08:00 21,9 C 7,6 C 8,3 C 81 % 36 % 1026 hPa 0,0 l/m 4,1 km/h (1 Bft) 0,15 h
19.04.2016 09:00 21,9 C 9,8 C 9,9 C 66 % 64 % 1026 hPa 0,0 l/m 6,1 km/h (2 Bft) 0,90 h
19.04.2016 10:00 22,0 C 10,4 C 10,9 C 61 % 66 % 1026 hPa 0,0 l/m 9,2 km/h (2 Bft) 0,90 h
19.04.2016 11:00 22,0 C 11,9 C 11,8 C 54 % 70 % 1026 hPa 0,0 l/m 12,5 km/h (3 Bft) 0,90 h
19.04.2016 12:00 22,0 C 12,3 C 12,5 C 50 % 58 % 1026 hPa 0,0 l/m 14,4 km/h (3 Bft) 0,65 h
19.04.2016 13:00 21,9 C 12,3 C 12,9 C 49 % 51 % 1025 hPa 0,0 l/m 15,1 km/h (3 Bft) 0,30 h
19.04.2016 14:00 22,0 C 12,8 C 13,5 C 46 % 64 % 1025 hPa 0,0 l/m 14,7 km/h (3 Bft) 0,80 h
19.04.2016 15:00 22,0 C 12,2 C 13,3 C 51 % 36 % 1025 hPa 0,0 l/m 13,3 km/h (3 Bft) 0,00 h
19.04.2016 16:00 21,6 C 12,2 C 13,2 C 52 % 48 % 1025 hPa 0,0 l/m 11,9 km/h (2 Bft) 0,25 h
19.04.2016 17:00 21,7 C 12,1 C 12,9 C 54 % 55 % 1025 hPa 0,0 l/m 11,4 km/h (2 Bft) 0,70 h
19.04.2016 18:00 21,9 C 11,1 C 12,3 C 56 % 15 % 1025 hPa 0,0 l/m 11,8 km/h (2 Bft) 0,00 h
19.04.2016 19:00 21,8 C 10,3 C 11,7 C 59 % 4 % 1025 hPa 0,0 l/m 6,6 km/h (2 Bft) 0,05 h
19.04.2016 20:00 21,8 C 9,5 C 11,1 C 62 % 0 % 1026 hPa 0,0 l/m 2,3 km/h (1 Bft) 0,00 h
19.04.2016 21:00 21,8 C 9,0 C 10,6 C 66 % 0 % 1026 hPa 0,0 l/m 1,7 km/h (1 Bft) 0,00 h
19.04.2016 22:00 21,8 C 9,0 C 10,5 C 65 % 0 % 1027 hPa 0,0 l/m 3,3 km/h (1 Bft) 0,00 h
19.04.2016 23:00 21,8 C 8,4 C 10,2 C 70 % 0 % 1027 hPa 0,0 l/m 1,3 km/h (1 Bft) 0,00 h
20.04.2016 00:00 21,8 C 8,1 C 9,9 C 71 % 0 % 1027 hPa 0,0 l/m 2,5 km/h (1 Bft) 0,00 h
20.04.2016 01:00 21,8 C 7,9 C 9,6 C 71 % 0 % 1027 hPa 0,0 l/m 5,1 km/h (1 Bft) 0,00 h
20.04.2016 02:00 21,8 C 7,3 C 9,4 C 74 % 0 % 1027 hPa 0,0 l/m 3,1 km/h (1 Bft) 0,00 h
20.04.2016 03:00 21,8 C 7,2 C 9,2 C 75 % 0 % 1027 hPa 0,0 l/m 3,7 km/h (1 Bft) 0,00 h
20.04.2016 04:00 21,8 C 7,2 C 9,1 C 75 % 0 % 1027 hPa 0,0 l/m 1,5 km/h (1 Bft) 0,00 h
20.04.2016 05:00 21,8 C 6,9 C 8,9 C 78 % 0 % 1028 hPa 0,0 l/m 0,0 km/h (0 Bft) 0,00 h
20.04.2016 06:00 21,8 C 6,8 C 8,7 C 76 % 4 % 1028 hPa 0,0 l/m 0,9 km/h (0 Bft) 0,00 h
20.04.2016 07:00 21,8 C 7,0 C 8,7 C 77 % 21 % 1029 hPa 0,0 l/m 1,1 km/h (0 Bft) 0,30 h
20.04.2016 08:00 21,8 C 8,2 C 9,3 C 71 % 34 % 1029 hPa 0,0 l/m 3,9 km/h (1 Bft) 0,10 h
20.04.2016 09:00 21,8 C 9,4 C 9,9 C 66 % 56 % 1029 hPa 0,0 l/m 2,8 km/h (1 Bft) 0,55 h
20.04.2016 10:00 21,9 C 10,7 C 10,6 C 60 % 73 % 1030 hPa 0,0 l/m 7,3 km/h (2 Bft) 1,00 h
20.04.2016 11:00 22,0 C 12,0 C 11,6 C 51 % 80 % 1030 hPa 0,0 l/m 10,9 km/h (2 Bft) 1,00 h
20.04.2016 12:00 22,0 C 12,8 C 12,5 C 46 % 81 % 1030 hPa 0,0 l/m 12,2 km/h (3 Bft) 1,00 h
20.04.2016 13:00 22,0 C 13,6 C 13,4 C 44 % 80 % 1029 hPa 0,0 l/m 11,5 km/h (2 Bft) 1,00 h
20.04.2016 14:00 22,0 C 14,4 C 15,1 C 40 % 81 % 1029 hPa 0,0 l/m 10,7 km/h (2 Bft) 1,00 h
20.04.2016 15:00 22,1 C 14,5 C 15,2 C 40 % 81 % 1029 hPa 0,0 l/m 8,6 km/h (2 Bft) 1,00 h
20.04.2016 16:00 22,2 C 14,5 C 14,9 C 38 % 81 % 1028 hPa 0,0 l/m 8,8 km/h (2 Bft) 1,00 h
20.04.2016 17:00 22,5 C 14,6 C 14,7 C 36 % 79 % 1028 hPa 0,0 l/m 8,4 km/h (2 Bft) 1,00 h
20.04.2016 18:00 22,6 C 14,0 C 14,1 C 35 % 66 % 1028 hPa 0,0 l/m 5,7 km/h (1 Bft) 1,00 h
20.04.2016 19:00 22,4 C 12,5 C 13,4 C 38 % 18 % 1028 hPa 0,0 l/m 4,0 km/h (1 Bft) 0,95 h
20.04.2016 20:00 22,3 C 9,8 C 11,9 C 53 % 1 % 1028 hPa 0,0 l/m 0,0 km/h (0 Bft) 0,00 h
20.04.2016 21:00 22,2 C 7,4 C 10,6 C 67 % 0 % 1028 hPa 0,0 l/m 0,1 km/h (0 Bft) 0,00 h
20.04.2016 22:00 22,1 C 6,0 C 9,5 C 73 % 0 % 1028 hPa 0,0 l/m 0,1 km/h (0 Bft) 0,00 h
20.04.2016 23:00 22,1 C 4,8 C 8,4 C 78 % 0 % 1029 hPa 0,0 l/m 0,2 km/h (0 Bft) 0,00 h
21.04.2016 00:00 22,0 C 3,9 C 7,7 C 82 % 0 % 1028 hPa 0,0 l/m 0,2 km/h (0 Bft) 0,00 h
21.04.2016 01:00 22,0 C 3,1 C 6,9 C 85 % 0 % 1028 hPa 0,0 l/m 0,1 km/h (0 Bft) 0,00 h
21.04.2016 02:00 22,0 C 2,3 C 6,5 C 86 % 0 % 1028 hPa 0,0 l/m 0,5 km/h (0 Bft) 0,00 h
21.04.2016 03:00 22,0 C 1,9 C 5,7 C 86 % 0 % 1027 hPa 0,0 l/m 0,2 km/h (0 Bft) 0,00 h
21.04.2016 04:00 22,0 C 1,4 C 5,1 C 88 % 0 % 1027 hPa 0,0 l/m 0,4 km/h (0 Bft) 0,00 h
21.04.2016 05:00 22,0 C 0,8 C 4,9 C 89 % 0 % 1026 hPa 0,0 l/m 0,0 km/h (0 Bft) 0,00 h
21.04.2016 06:00 22,0 C 0,9 C 4,6 C 89 % 7 % 1026 hPa 0,0 l/m 0,4 km/h (0 Bft) 0,05 h
21.04.2016 07:00 22,1 C 3,1 C 5,1 C 82 % 24 % 1026 hPa 0,0 l/m 0,0 km/h (0 Bft) 0,30 h
21.04.2016 08:00 22,1 C 6,3 C 6,4 C 69 % 32 % 1026 hPa 0,0 l/m 2,9 km/h (1 Bft) 0,00 h
21.04.2016 09:00 22,2 C 9,5 C 8,1 C 60 % 61 % 1026 hPa 0,0 l/m 13,0 km/h (3 Bft) 0,75 h
21.04.2016 10:00 22,2 C 11,6 C 10,2 C 54 % 71 % 1026 hPa 0,0 l/m 14,2 km/h (3 Bft) 1,00 h
21.04.2016 11:00 22,2 C 13,3 C 11,8 C 51 % 77 % 1026 hPa 0,0 l/m 13,2 km/h (3 Bft) 1,00 h
21.04.2016 12:00 22,2 C 15,4 C 13,4 C 47 % 80 % 1026 hPa 0,0 l/m 11,5 km/h (2 Bft) 1,00 h
21.04.2016 13:00 22,3 C 16,8 C 15,7 C 42 % 80 % 1025 hPa 0,0 l/m 13,3 km/h (3 Bft) 1,00 h
21.04.2016 14:00 22,3 C 18,1 C 18,0 C 38 % 80 % 1024 hPa 0,0 l/m 10,5 km/h (2 Bft) 1,00 h
21.04.2016 15:00 22,4 C 18,9 C 19,4 C 34 % 80 % 1023 hPa 0,0 l/m 10,7 km/h (2 Bft) 1,00 h
21.04.2016 16:00 22,7 C 19,3 C 18,9 C 30 % 80 % 1022 hPa 0,0 l/m 8,2 km/h (2 Bft) 1,00 h
21.04.2016 17:00 22,8 C 19,6 C 18,6 C 28 % 78 % 1021 hPa 0,0 l/m 7,8 km/h (2 Bft) 1,00 h
21.04.2016 18:00 22,9 C 18,7 C 17,7 C 29 % 68 % 1020 hPa 0,0 l/m 6,1 km/h (2 Bft) 1,00 h
21.04.2016 19:00 22,8 C 16,2 C 16,2 C 36 % 20 % 1020 hPa 0,0 l/m 1,8 km/h (1 Bft) 0,90 h
21.04.2016 20:00 22,6 C 12,9 C 14,7 C 50 % 0 % 1019 hPa 0,0 l/m 0,1 km/h (0 Bft) 0,00 h
21.04.2016 21:00 22,5 C 10,5 C 13,3 C 63 % 0 % 1020 hPa 0,0 l/m 0,1 km/h (0 Bft) 0,00 h
21.04.2016 22:00 22,5 C 8,8 C 12,0 C 69 % 0 % 1020 hPa 0,0 l/m 0,0 km/h (0 Bft) 0,00 h
21.04.2016 23:00 22,4 C 7,1 C 10,6 C 75 % 0 % 1019 hPa 0,0 l/m 1,9 km/h (1 Bft) 0,00 h
22.04.2016 00:00 22,4 C 6,3 C 9,8 C 78 % 0 % 1019 hPa 0,0 l/m 0,4 km/h (0 Bft) 0,00 h
22.04.2016 01:00 22,3 C 5,2 C 8,8 C 82 % 0 % 1019 hPa 0,0 l/m 0,0 km/h (0 Bft) 0,00 h
22.04.2016 02:00 22,3 C 4,3 C 8,1 C 85 % 0 % 1019 hPa 0,0 l/m 0,0 km/h (0 Bft) 0,00 h
22.04.2016 03:00 22,3 C 3,6 C 7,5 C 87 % 0 % 1019 hPa 0,0 l/m 0,0 km/h (0 Bft) 0,00 h
22.04.2016 04:00 22,3 C 3,3 C 7,1 C 89 % 0 % 1019 hPa 0,0 l/m 0,0 km/h (0 Bft) 0,00 h
22.04.2016 05:00 22,2 C 2,4 C 6,5 C 90 % 0 % 1019 hPa 0,0 l/m 0,0 km/h (0 Bft) 0,00 h
22.04.2016 06:00 22,2 C 2,3 C 6,2 C 91 % 7 % 1019 hPa 0,0 l/m 0,0 km/h (0 Bft) 0,05 h
22.04.2016 07:00 22,3 C 3,8 C 6,4 C 90 % 23 % 1019 hPa 0,0 l/m 0,4 km/h (0 Bft) 0,00 h
22.04.2016 08:00 22,3 C 6,0 C 7,2 C 83 % 35 % 1019 hPa 0,0 l/m 1,4 km/h (1 Bft) 0,00 h
22.04.2016 09:00 22,4 C 8,7 C 8,6 C 75 % 60 % 1019 hPa 0,0 l/m 3,1 km/h (1 Bft) 0,85 h
22.04.2016 10:00 22,4 C 11,8 C 10,6 C 66 % 70 % 1019 hPa 0,0 l/m 4,2 km/h (1 Bft) 1,00 h
22.04.2016 11:00 22,4 C 14,3 C 12,5 C 61 % 74 % 1018 hPa 0,0 l/m 4,7 km/h (1 Bft) 1,00 h
22.04.2016 12:00 22,5 C 16,9 C 15,4 C 50 % 80 % 1018 hPa 0,0 l/m 4,4 km/h (1 Bft) 1,00 h
22.04.2016 13:00 22,6 C 19,0 C 17,5 C 39 % 80 % 1017 hPa 0,0 l/m 8,4 km/h (2 Bft) 1,00 h
22.04.2016 14:00 22,8 C 19,4 C 18,5 C 38 % 80 % 1016 hPa 0,0 l/m 7,0 km/h (2 Bft) 1,00 h
22.04.2016 15:00 22,9 C 19,7 C 19,0 C 37 % 79 % 1015 hPa 0,0 l/m 5,5 km/h (1 Bft) 1,00 h
22.04.2016 16:00 23,1 C 19,7 C 18,9 C 37 % 80 % 1014 hPa 0,0 l/m 5,9 km/h (2 Bft) 1,00 h
22.04.2016 17:00 23,1 C 19,2 C 18,5 C 37 % 76 % 1014 hPa 0,0 l/m 5,7 km/h (1 Bft) 1,00 h
22.04.2016 18:00 23,0 C 18,0 C 17,9 C 39 % 37 % 1014 hPa 0,0 l/m 5,8 km/h (2 Bft) 0,65 h
22.04.2016 19:00 23,0 C 16,1 C 16,7 C 43 % 10 % 1013 hPa 0,0 l/m 1,1 km/h (1 Bft) 0,80 h
22.04.2016 20:00 22,9 C 13,6 C 15,1 C 58 % 0 % 1013 hPa 0,0 l/m 0,4 km/h (0 Bft) 0,00 h
22.04.2016 21:00 22,8 C 11,8 C 13,9 C 64 % 0 % 1013 hPa 0,0 l/m 0,2 km/h (0 Bft) 0,00 h
22.04.2016 22:00 22,7 C 10,5 C 13,1 C 69 % 0 % 1013 hPa 0,0 l/m 0,2 km/h (0 Bft) 0,00 h
22.04.2016 23:00 22,6 C 9,7 C 12,3 C 73 % 0 % 1013 hPa 0,0 l/m 0,0 km/h (0 Bft) 0,00 h
23.04.2016 00:00 22,6 C 9,4 C 11,8 C 76 % 0 % 1013 hPa 0,0 l/m 0,1 km/h (0 Bft) 0,00 h
23.04.2016 01:00 22,6 C 8,9 C 11,4 C 78 % 0 % 1013 hPa 0,0 l/m 0,0 km/h (0 Bft) 0,00 h
23.04.2016 02:00 22,5 C 8,5 C 11,0 C 81 % 0 % 1012 hPa 0,0 l/m 0,0 km/h (0 Bft) 0,00 h
23.04.2016 03:00 22,4 C 8,6 C 11,0 C 81 % 0 % 1011 hPa 0,0 l/m 0,0 km/h (0 Bft) 0,00 h
23.04.2016 04:00 22,4 C 8,6 C 10,8 C 82 % 0 % 1011 hPa 0,0 l/m 0,0 km/h (0 Bft) 0,00 h
23.04.2016 05:00 22,4 C 8,6 C 10,7 C 84 % 0 % 1010 hPa 0,0 l/m 0,0 km/h (0 Bft) 0,00 h
23.04.2016 06:00 22,4 C 8,6 C 10,7 C 84 % 3 % 1010 hPa 0,0 l/m 0,0 km/h (0 Bft) 0,00 h
23.04.2016 07:00 22,4 C 9,4 C 10,9 C 76 % 12 % 1010 hPa 0,0 l/m 0,2 km/h (0 Bft) 0,00 h
23.04.2016 08:00 22,4 C 10,4 C 11,3 C 69 % 23 % 1010 hPa 0,0 l/m 1,7 km/h (1 Bft) 0,00 h
23.04.2016 09:00 22,4 C 10,9 C 11,8 C 65 % 28 % 1009 hPa 0,0 l/m 5,9 km/h (2 Bft) 0,00 h
23.04.2016 10:00 22,4 C 11,7 C 12,5 C 63 % 41 % 1009 hPa 0,0 l/m 5,4 km/h (1 Bft) 0,05 h
23.04.2016 11:00 22,5 C 12,4 C 13,0 C 61 % 30 % 1009 hPa 0,0 l/m 3,0 km/h (1 Bft) 0,00 h
23.04.2016 12:00 22,5 C 12,3 C 13,0 C 66 % 29 % 1009 hPa 0,0 l/m 0,9 km/h (0 Bft) 0,00 h
23.04.2016 13:00 21,7 C 13,1 C 13,5 C 65 % 38 % 1008 hPa 0,0 l/m 0,9 km/h (0 Bft) 0,00 h
23.04.2016 14:00 21,2 C 13,5 C 14,0 C 64 % 40 % 1008 hPa 0,0 l/m 2,2 km/h (1 Bft) 0,00 h
23.04.2016 15:00 21,9 C 14,0 C 14,6 C 59 % 59 % 1007 hPa 0,0 l/m 3,1 km/h (1 Bft) 0,75 h
23.04.2016 16:00 21,9 C 14,3 C 15,0 C 60 % 44 % 1006 hPa 0,0 l/m 2,0 km/h (1 Bft) 0,10 h
23.04.2016 17:00 21,9 C 14,1 C 15,0 C 62 % 28 % 1006 hPa 0,0 l/m 2,0 km/h (1 Bft) 0,00 h
23.04.2016 18:00 22,0 C 13,9 C 14,8 C 64 % 23 % 1005 hPa 0,0 l/m 3,0 km/h (1 Bft) 0,15 h
23.04.2016 19:00 22,1 C 13,1 C 14,3 C 68 % 5 % 1005 hPa 0,0 l/m 2,8 km/h (1 Bft) 0,00 h
23.04.2016 20:00 22,2 C 10,9 C 13,0 C 79 % 0 % 1005 hPa 0,0 l/m 10,9 km/h (2 Bft) 0,00 h
23.04.2016 21:00 22,1 C 8,0 C 10,9 C 89 % 0 % 1007 hPa 2,7 l/m 15,9 km/h (3 Bft) 0,00 h
23.04.2016 22:00 22,1 C 6,8 C 9,2 C 91 % 0 % 1008 hPa 2,1 l/m 15,3 km/h (3 Bft) 0,00 h
23.04.2016 23:00 22,0 C 4,8 C 7,2 C 90 % 0 % 1009 hPa 1,4 l/m 17,1 km/h (3 Bft) 0,00 h
24.04.2016 00:00 22,0 C 3,6 C 6,1 C 91 % 0 % 1011 hPa 1,0 l/m 15,8 km/h (3 Bft) 0,00 h
24.04.2016 01:00 22,0 C 3,3 C 5,6 C 90 % 0 % 1012 hPa 0,3 l/m 13,3 km/h (3 Bft) 0,00 h
24.04.2016 02:00 22,0 C 3,3 C 5,4 C 90 % 0 % 1012 hPa 0,0 l/m 10,1 km/h (2 Bft) 0,00 h
24.04.2016 03:00 22,0 C 3,3 C 5,3 C 88 % 0 % 1013 hPa 0,0 l/m 11,5 km/h (2 Bft) 0,00 h
24.04.2016 04:00 22,1 C 3,1 C 5,1 C 86 % 0 % 1013 hPa 0,0 l/m 10,1 km/h (2 Bft) 0,00 h
24.04.2016 05:00 22,1 C 2,7 C 5,0 C 86 % 0 % 1013 hPa 0,0 l/m 8,4 km/h (2 Bft) 0,00 h
24.04.2016 06:00 22,1 C 2,5 C 4,9 C 86 % 6 % 1013 hPa 0,0 l/m 5,0 km/h (1 Bft) 0,00 h
24.04.2016 07:00 22,1 C 3,0 C 5,1 C 83 % 28 % 1013 hPa 0,0 l/m 8,9 km/h (2 Bft) 0,50 h
24.04.2016 08:00 22,3 C 3,6 C 5,7 C 78 % 35 % 1013 hPa 0,0 l/m 12,7 km/h (3 Bft) 0,20 h
24.04.2016 09:00 21,2 C 4,8 C 6,2 C 72 % 56 % 1013 hPa 0,0 l/m 10,3 km/h (2 Bft) 0,55 h
24.04.2016 10:00 22,0 C 5,3 C 6,7 C 66 % 57 % 1013 hPa 0,0 l/m 12,0 km/h (2 Bft) 0,55 h
24.04.2016 11:00 22,1 C 5,3 C 6,8 C 62 % 41 % 1013 hPa 0,0 l/m 14,5 km/h (3 Bft) 0,05 h
24.04.2016 12:00 20,3 C 6,3 C 7,5 C 59 % 60 % 1013 hPa 0,0 l/m 13,6 km/h (3 Bft) 0,55 h
24.04.2016 13:00 21,0 C 6,5 C 8,1 C 58 % 54 % 1013 hPa 0,0 l/m 14,6 km/h (3 Bft) 0,35 h
24.04.2016 14:00 21,7 C 7,0 C 8,7 C 57 % 58 % 1012 hPa 0,0 l/m 16,2 km/h (3 Bft) 0,45 h
24.04.2016 15:00 22,1 C 7,5 C 9,1 C 56 % 80 % 1012 hPa 0,0 l/m 12,7 km/h (3 Bft) 1,00 h
24.04.2016 16:00 22,2 C 8,0 C 9,4 C 51 % 72 % 1012 hPa 0,0 l/m 12,9 km/h (3 Bft) 0,80 h
24.04.2016 17:00 22,5 C 8,3 C 9,4 C 47 % 72 % 1011 hPa 0,0 l/m 11,8 km/h (2 Bft) 0,83 h
24.04.2016 18:00 22,6 C 7,3 C 8,8 C 47 % 58 % 1011 hPa 0,0 l/m 10,5 km/h (2 Bft) 0,80 h
24.04.2016 19:00 22,7 C 5,9 C 8,1 C 56 % 9 % 1012 hPa 0,0 l/m 7,6 km/h (2 Bft) 0,05 h
24.04.2016 20:00 22,5 C 4,1 C 6,8 C 70 % 0 % 1012 hPa 0,0 l/m 7,3 km/h (2 Bft) 0,00 h
24.04.2016 21:00 22,3 C 3,0 C 5,9 C 76 % 0 % 1013 hPa 0,0 l/m 2,8 km/h (1 Bft) 0,00 h
24.04.2016 22:00 22,3 C 2,1 C 5,4 C 85 % 0 % 1013 hPa 0,0 l/m 3,8 km/h (1 Bft) 0,00 h
24.04.2016 23:00 22,2 C 1,0 C 4,8 C 90 % 0 % 1013 hPa 0,0 l/m 0,0 km/h (0 Bft) 0,00 h
Min-Datum _ 24.04.16 21.04.16 21.04.16 21.04.16 - 23.04.16 - 18.04.16 -
_ Min-Zeit 09:28 05:43 06:31 17:10 - 17:33 - 01:21 -
Minimum _ 18,8 C 0,5 C 4,2 C 26 % - 1005 hPa - 0,0 km/h (0 Bft) -
Max-Datum _ 22.04.16 22.04.16 21.04.16 18.04.16 24.04.16 20.04.16 23.04.16 23.04.16 18.04.16
_ Max-Zeit 16:32 15:59 15:01 06:49 14:01 10:27 21:33 23:33 12:04
Maximum _ 23,2 C 20,6 C 20,2 C 96 % 84 % 1030 hPa 2,7 l/m 27,3 km/h
N-NW (4 Bft)
0,05 h
Durchschnitt _ 22,1 C 9,2 C 10,6 C 70 % #47:44 h 1019 hPa #11,6 l/m 4,8 km/h (1 Bft) #47:44 h